createdAt,value
2023-04-29T00:00:59.315Z,1306.00
2023-04-29T00:01:59.298Z,1305.00
2023-04-29T00:02:59.350Z,1303.00
2023-04-29T00:03:59.447Z,1303.00
2023-04-29T00:04:59.468Z,1303.00
2023-04-29T00:05:59.114Z,1305.00
2023-04-29T00:06:58.989Z,1304.00
2023-04-29T00:07:58.925Z,1301.00
2023-04-29T00:08:58.874Z,1300.00
2023-04-29T00:09:58.817Z,1299.00
2023-04-29T00:10:58.771Z,1301.00
2023-04-29T00:11:58.724Z,1301.00
2023-04-29T00:12:58.657Z,1301.00
2023-04-29T00:13:58.606Z,1298.00
2023-04-29T00:14:58.544Z,1295.00
2023-04-29T00:15:58.504Z,1295.00
2023-04-29T00:16:58.497Z,1298.00
2023-04-29T00:17:58.436Z,1298.00
2023-04-29T00:18:58.331Z,1296.00
2023-04-29T00:19:58.273Z,1293.00
2023-04-29T00:20:58.225Z,1288.00
2023-04-29T00:21:58.171Z,1285.00
2023-04-29T00:22:58.138Z,1285.00
2023-04-29T00:23:58.077Z,1286.00
2023-04-29T00:24:58.033Z,1285.00
2023-04-29T00:25:57.981Z,1284.00
2023-04-29T00:26:57.936Z,1283.00
2023-04-29T00:27:57.879Z,1283.00
2023-04-29T00:28:57.827Z,1284.00
2023-04-29T00:29:57.775Z,1283.00
2023-04-29T00:30:57.758Z,1283.00
2023-04-29T00:31:57.680Z,1279.00
2023-04-29T00:32:57.690Z,1279.00
2023-04-29T00:33:57.570Z,1279.00
2023-04-29T00:34:57.523Z,1279.00
2023-04-29T00:35:57.500Z,1280.00
2023-04-29T00:36:57.432Z,1282.00
2023-04-29T00:37:57.378Z,1282.00
2023-04-29T00:38:57.331Z,1281.00
2023-04-29T00:39:57.297Z,1284.00
2023-04-29T00:40:57.229Z,1282.00
2023-04-29T00:41:57.175Z,1277.00
2023-04-29T00:42:57.129Z,1274.00
2023-04-29T00:43:57.092Z,1276.00
2023-04-29T00:44:57.306Z,1277.00
2023-04-29T00:45:57.013Z,1277.00
2023-04-29T00:46:56.936Z,1278.00
2023-04-29T00:47:56.907Z,1279.00
2023-04-29T00:48:56.843Z,1274.00
2023-04-29T00:49:56.778Z,1274.00
2023-04-29T00:50:56.706Z,1273.00
2023-04-29T00:51:56.670Z,1276.00
2023-04-29T00:52:56.614Z,1274.00
2023-04-29T00:53:56.551Z,1273.00
2023-04-29T00:54:56.500Z,1273.00
2023-04-29T00:55:56.441Z,1269.00
2023-04-29T00:56:56.398Z,1269.00
2023-04-29T00:57:56.337Z,1268.00
2023-04-29T00:58:56.286Z,1265.00
2023-04-29T00:59:56.238Z,1265.00
2023-04-29T01:00:56.513Z,1265.00
2023-04-29T01:01:56.161Z,1264.00
2023-04-29T01:02:56.242Z,1264.00
2023-04-29T01:03:56.167Z,1265.00
2023-04-29T01:04:56.025Z,1264.00
2023-04-29T01:05:55.952Z,1265.00
2023-04-29T01:06:55.892Z,1266.00
2023-04-29T01:07:55.848Z,1267.00
2023-04-29T01:08:55.790Z,1267.00
2023-04-29T01:09:55.864Z,1267.00
2023-04-29T01:10:55.708Z,1264.00
2023-04-29T01:11:55.666Z,1260.00
2023-04-29T01:12:55.612Z,1259.00
2023-04-29T01:13:55.557Z,1257.00
2023-04-29T01:14:55.513Z,1254.00
2023-04-29T01:15:55.490Z,1255.00
2023-04-29T01:16:55.420Z,1255.00
2023-04-29T01:17:55.398Z,1252.00
2023-04-29T01:18:55.321Z,1253.00
2023-04-29T01:19:55.350Z,1250.00
2023-04-29T01:20:55.224Z,1250.00
2023-04-29T01:21:55.177Z,1252.00
2023-04-29T01:22:55.130Z,1253.00
2023-04-29T01:23:55.233Z,1253.00
2023-04-29T01:24:55.032Z,1258.00
2023-04-29T01:25:54.980Z,1254.00
2023-04-29T01:26:54.928Z,1255.00
2023-04-29T01:27:54.868Z,1255.00
2023-04-29T01:28:54.818Z,1254.00
2023-04-29T01:29:54.820Z,1253.00
2023-04-29T01:30:54.718Z,1251.00
2023-04-29T01:31:54.697Z,1252.00
2023-04-29T01:32:54.644Z,1250.00
2023-04-29T01:33:54.581Z,1250.00
2023-04-29T01:34:54.514Z,1248.00
2023-04-29T01:35:54.463Z,1251.00
2023-04-29T01:36:54.399Z,1252.00
2023-04-29T01:37:54.345Z,1248.00
2023-04-29T01:38:54.299Z,1249.00
2023-04-29T01:39:54.424Z,1245.00
2023-04-29T01:40:54.188Z,1245.00
2023-04-29T01:41:54.140Z,1247.00
2023-04-29T01:42:54.102Z,1244.00
2023-04-29T01:43:54.040Z,1245.00
2023-04-29T01:44:53.983Z,1247.00
2023-04-29T01:45:53.922Z,1245.00
2023-04-29T01:46:54.021Z,1243.00
2023-04-29T01:47:53.831Z,1244.00
2023-04-29T01:48:53.749Z,1245.00
2023-04-29T01:49:53.800Z,1248.00
2023-04-29T01:50:53.635Z,1245.00
2023-04-29T01:51:53.583Z,1246.00
2023-04-29T01:52:53.535Z,1246.00
2023-04-29T01:53:53.486Z,1243.00
2023-04-29T01:54:53.445Z,1240.00
2023-04-29T01:55:53.388Z,1238.00
2023-04-29T01:56:53.335Z,1236.00
2023-04-29T01:57:53.292Z,1234.00
2023-04-29T01:58:53.245Z,1230.00
2023-04-29T01:59:53.305Z,1235.00
2023-04-29T02:00:53.280Z,1233.00
2023-04-29T02:01:53.106Z,1232.00
2023-04-29T02:02:53.176Z,1229.00
2023-04-29T02:03:53.242Z,1230.00
2023-04-29T02:04:53.058Z,1231.00
2023-04-29T02:05:52.908Z,1230.00
2023-04-29T02:06:52.872Z,1231.00
2023-04-29T02:07:52.812Z,1234.00
2023-04-29T02:08:52.770Z,1234.00
2023-04-29T02:09:52.996Z,1235.00
2023-04-29T02:10:52.678Z,1233.00
2023-04-29T02:11:52.609Z,1232.00
2023-04-29T02:12:52.569Z,1232.00
2023-04-29T02:13:52.509Z,1232.00
2023-04-29T02:14:52.474Z,1232.00
2023-04-29T02:15:52.518Z,1232.00
2023-04-29T02:16:52.380Z,1231.00
2023-04-29T02:17:52.351Z,1230.00
2023-04-29T02:18:52.278Z,1231.00
2023-04-29T02:19:52.404Z,1231.00
2023-04-29T02:20:52.186Z,1231.00
2023-04-29T02:21:52.138Z,1229.00
2023-04-29T02:22:52.077Z,1229.00
2023-04-29T02:23:52.068Z,1228.00
2023-04-29T02:24:51.982Z,1229.00
2023-04-29T02:25:51.937Z,1228.00
2023-04-29T02:26:51.906Z,1225.00
2023-04-29T02:27:51.845Z,1228.00
2023-04-29T02:28:51.797Z,1226.00
2023-04-29T02:29:52.019Z,1227.00
2023-04-29T02:30:51.716Z,1225.00
2023-04-29T02:31:51.698Z,1225.00
2023-04-29T02:32:51.672Z,1223.00
2023-04-29T02:33:51.575Z,1223.00
2023-04-29T02:34:51.536Z,1223.00
2023-04-29T02:35:51.471Z,1219.00
2023-04-29T02:36:51.449Z,1220.00
2023-04-29T02:37:51.384Z,1220.00
2023-04-29T02:38:51.334Z,1223.00
2023-04-29T02:39:51.495Z,1224.00
2023-04-29T02:40:51.250Z,1224.00
2023-04-29T02:41:51.198Z,1225.00
2023-04-29T02:42:51.152Z,1225.00
2023-04-29T02:43:51.099Z,1225.00
2023-04-29T02:44:51.072Z,1225.00
2023-04-29T02:45:51.006Z,1224.00
2023-04-29T02:46:50.947Z,1223.00
2023-04-29T02:47:50.904Z,1223.00
2023-04-29T02:48:50.850Z,1220.00
2023-04-29T02:49:51.017Z,1218.00
2023-04-29T02:50:50.757Z,1218.00
2023-04-29T02:51:50.715Z,1214.00
2023-04-29T02:52:50.680Z,1216.00
2023-04-29T02:53:50.644Z,1216.00
2023-04-29T02:54:50.606Z,1218.00
2023-04-29T02:55:50.575Z,1218.00
2023-04-29T02:56:50.511Z,1218.00
2023-04-29T02:57:50.469Z,1216.00
2023-04-29T02:58:50.423Z,1213.00
2023-04-29T02:59:50.483Z,1211.00
2023-04-29T03:00:50.328Z,1211.00
2023-04-29T03:01:50.258Z,1213.00
2023-04-29T03:02:50.249Z,1211.00
2023-04-29T03:03:50.239Z,1209.00
2023-04-29T03:04:50.094Z,1211.00
2023-04-29T03:05:50.038Z,1210.00
2023-04-29T03:06:49.986Z,1208.00
2023-04-29T03:07:49.929Z,1208.00
2023-04-29T03:08:49.869Z,1206.00
2023-04-29T03:09:49.873Z,1198.00
2023-04-29T03:10:49.780Z,1197.00
2023-04-29T03:11:49.729Z,1199.00
2023-04-29T03:12:49.673Z,1204.00
2023-04-29T03:13:49.636Z,1206.00
2023-04-29T03:14:49.596Z,1208.00
2023-04-29T03:15:49.545Z,1207.00
2023-04-29T03:16:49.562Z,1205.00
2023-04-29T03:17:49.509Z,1203.00
2023-04-29T03:18:49.416Z,1203.00
2023-04-29T03:19:49.391Z,1203.00
2023-04-29T03:20:49.449Z,1201.00
2023-04-29T03:21:49.280Z,1196.00
2023-04-29T03:22:49.252Z,1197.00
2023-04-29T03:23:49.210Z,1201.00
2023-04-29T03:24:49.160Z,1203.00
2023-04-29T03:25:49.121Z,1204.00
2023-04-29T03:26:49.068Z,1201.00
2023-04-29T03:27:49.019Z,1204.00
2023-04-29T03:28:48.987Z,1204.00
2023-04-29T03:29:48.936Z,1207.00
2023-04-29T03:30:48.888Z,1212.00
2023-04-29T03:31:48.889Z,1210.00
2023-04-29T03:32:48.826Z,1210.00
2023-04-29T03:33:48.747Z,1204.00
2023-04-29T03:34:48.680Z,1204.00
2023-04-29T03:35:48.631Z,1203.00
2023-04-29T03:36:48.596Z,1202.00
2023-04-29T03:37:48.536Z,1201.00
2023-04-29T03:38:48.475Z,1201.00
2023-04-29T03:39:48.421Z,1198.00
2023-04-29T03:40:48.376Z,1198.00
2023-04-29T03:41:48.340Z,1197.00
2023-04-29T03:42:48.294Z,1197.00
2023-04-29T03:43:48.246Z,1198.00
2023-04-29T03:44:48.188Z,1201.00
2023-04-29T03:45:48.214Z,1203.00
2023-04-29T03:46:48.115Z,1203.00
2023-04-29T03:47:48.116Z,1203.00
2023-04-29T03:48:48.013Z,1199.00
2023-04-29T03:49:47.968Z,1196.00
2023-04-29T03:50:47.934Z,1192.00
2023-04-29T03:51:47.891Z,1192.00
2023-04-29T03:52:47.831Z,1186.00
2023-04-29T03:53:47.785Z,1189.00
2023-04-29T03:54:47.753Z,1192.00
2023-04-29T03:55:47.722Z,1188.00
2023-04-29T03:56:47.668Z,1191.00
2023-04-29T03:57:47.632Z,1190.00
2023-04-29T03:58:47.576Z,1188.00
2023-04-29T03:59:47.542Z,1187.00
2023-04-29T04:00:47.483Z,1186.00
2023-04-29T04:01:47.491Z,1184.00
2023-04-29T04:02:47.646Z,1183.00
2023-04-29T04:03:47.455Z,1185.00
2023-04-29T04:04:47.485Z,1187.00
2023-04-29T04:05:47.245Z,1188.00
2023-04-29T04:06:47.185Z,1189.00
2023-04-29T04:07:47.145Z,1192.00
2023-04-29T04:08:47.071Z,1192.00
2023-04-29T04:09:47.019Z,1193.00
2023-04-29T04:10:46.975Z,1188.00
2023-04-29T04:11:46.919Z,1189.00
2023-04-29T04:12:46.890Z,1185.00
2023-04-29T04:13:46.843Z,1186.00
2023-04-29T04:14:46.791Z,1185.00
2023-04-29T04:15:46.732Z,1183.00
2023-04-29T04:16:46.751Z,1184.00
2023-04-29T04:17:46.654Z,1182.00
2023-04-29T04:18:46.593Z,1182.00
2023-04-29T04:19:46.553Z,1181.00
2023-04-29T04:20:46.506Z,1181.00
2023-04-29T04:21:46.468Z,1182.00
2023-04-29T04:22:46.910Z,1178.00
2023-04-29T04:23:46.384Z,1177.00
2023-04-29T04:24:46.501Z,1177.00
2023-04-29T04:25:46.291Z,1179.00
2023-04-29T04:26:46.243Z,1176.00
2023-04-29T04:27:46.191Z,1172.00
2023-04-29T04:28:46.130Z,1171.00
2023-04-29T04:29:46.075Z,1172.00
2023-04-29T04:30:46.020Z,1170.00
2023-04-29T04:31:47.219Z,1175.00
2023-04-29T04:32:45.958Z,1175.00
2023-04-29T04:33:45.885Z,1172.00
2023-04-29T04:34:45.823Z,1171.00
2023-04-29T04:35:45.795Z,1171.00
2023-04-29T04:36:45.752Z,1171.00
2023-04-29T04:37:45.700Z,1171.00
2023-04-29T04:38:45.649Z,1175.00
2023-04-29T04:39:45.604Z,1178.00
2023-04-29T04:40:45.558Z,1179.00
2023-04-29T04:41:45.578Z,1180.00
2023-04-29T04:42:45.459Z,1177.00
2023-04-29T04:43:45.395Z,1175.00
2023-04-29T04:44:45.345Z,1173.00
2023-04-29T04:45:45.394Z,1175.00
2023-04-29T04:46:45.247Z,1177.00
2023-04-29T04:47:45.288Z,1175.00
2023-04-29T04:48:45.147Z,1171.00
2023-04-29T04:49:45.289Z,1171.00
2023-04-29T04:50:45.048Z,1170.00
2023-04-29T04:51:45.009Z,1167.00
2023-04-29T04:52:44.970Z,1170.00
2023-04-29T04:53:44.916Z,1168.00
2023-04-29T04:54:44.874Z,1171.00
2023-04-29T04:55:44.869Z,1170.00
2023-04-29T04:56:44.777Z,1170.00
2023-04-29T04:57:44.732Z,1174.00
2023-04-29T04:58:44.690Z,1169.00
2023-04-29T04:59:44.653Z,1169.00
2023-04-29T05:00:44.641Z,1169.00
2023-04-29T05:01:44.557Z,1163.00
2023-04-29T05:02:44.754Z,1162.00
2023-04-29T05:03:44.688Z,1160.00
2023-04-29T05:04:44.415Z,1161.00
2023-04-29T05:05:44.362Z,1168.00
2023-04-29T05:06:44.306Z,1167.00
2023-04-29T05:07:44.263Z,1167.00
2023-04-29T05:08:44.231Z,1169.00
2023-04-29T05:09:44.173Z,1167.00
2023-04-29T05:10:44.695Z,1170.00
2023-04-29T05:11:44.086Z,1166.00
2023-04-29T05:12:44.045Z,1167.00
2023-04-29T05:13:44.026Z,1168.00
2023-04-29T05:14:43.966Z,1165.00
2023-04-29T05:15:43.914Z,1166.00
2023-04-29T05:16:43.923Z,1164.00
2023-04-29T05:17:43.856Z,1162.00
2023-04-29T05:18:43.772Z,1163.00
2023-04-29T05:19:43.734Z,1163.00
2023-04-29T05:20:43.686Z,1162.00
2023-04-29T05:21:43.645Z,1162.00
2023-04-29T05:22:43.611Z,1159.00
2023-04-29T05:23:43.604Z,1160.00
2023-04-29T05:24:43.533Z,1159.00
2023-04-29T05:25:43.487Z,1160.00
2023-04-29T05:26:43.446Z,1156.00
2023-04-29T05:27:43.412Z,1152.00
2023-04-29T05:28:43.367Z,1150.00
2023-04-29T05:29:43.306Z,1146.00
2023-04-29T05:30:43.270Z,1144.00
2023-04-29T05:31:43.220Z,1146.00
2023-04-29T05:32:43.191Z,1147.00
2023-04-29T05:33:43.111Z,1147.00
2023-04-29T05:34:43.059Z,1144.00
2023-04-29T05:35:43.014Z,1143.00
2023-04-29T05:36:42.969Z,1145.00
2023-04-29T05:37:42.912Z,1148.00
2023-04-29T05:38:42.861Z,1148.00
2023-04-29T05:39:42.838Z,1148.00
2023-04-29T05:40:42.768Z,1150.00
2023-04-29T05:41:42.718Z,1151.00
2023-04-29T05:42:42.671Z,1148.00
2023-04-29T05:43:42.621Z,1145.00
2023-04-29T05:44:42.572Z,1142.00
2023-04-29T05:45:42.510Z,1143.00
2023-04-29T05:46:42.487Z,1145.00
2023-04-29T05:47:42.465Z,1148.00
2023-04-29T05:48:42.352Z,1149.00
2023-04-29T05:49:42.300Z,1148.00
2023-04-29T05:50:42.260Z,1151.00
2023-04-29T05:51:42.199Z,1152.00
2023-04-29T05:52:42.155Z,1146.00
2023-04-29T05:53:42.112Z,1142.00
2023-04-29T05:54:42.066Z,1144.00
2023-04-29T05:55:42.015Z,1146.00
2023-04-29T05:56:41.963Z,1142.00
2023-04-29T05:57:41.926Z,1143.00
2023-04-29T05:58:41.868Z,1142.00
2023-04-29T05:59:41.828Z,1142.00
2023-04-29T06:00:41.773Z,1140.00
2023-04-29T06:01:41.716Z,1139.00
2023-04-29T06:02:50.716Z,1141.00
2023-04-29T06:03:42.659Z,1142.00
2023-04-29T06:04:41.964Z,1140.00
2023-04-29T06:05:41.973Z,1140.00
2023-04-29T06:06:41.257Z,1136.00
2023-04-29T06:07:41.163Z,1135.00
2023-04-29T06:08:41.076Z,1141.00
2023-04-29T06:09:40.974Z,1141.00
2023-04-29T06:10:40.894Z,1137.00
2023-04-29T06:11:40.768Z,1135.00
2023-04-29T06:12:40.690Z,1137.00
2023-04-29T06:13:40.559Z,1134.00
2023-04-29T06:14:40.457Z,1137.00
2023-04-29T06:15:40.443Z,1139.00
2023-04-29T06:16:40.535Z,1141.00
2023-04-29T06:17:40.390Z,1141.00
2023-04-29T06:18:40.250Z,1139.00
2023-04-29T06:19:40.180Z,1137.00
2023-04-29T06:20:40.115Z,1137.00
2023-04-29T06:21:40.067Z,1137.00
2023-04-29T06:22:39.986Z,1135.00
2023-04-29T06:23:39.913Z,1133.00
2023-04-29T06:24:39.856Z,1133.00
2023-04-29T06:25:39.795Z,1137.00
2023-04-29T06:26:39.734Z,1136.00
2023-04-29T06:27:39.660Z,1137.00
2023-04-29T06:28:39.600Z,1139.00
2023-04-29T06:29:39.526Z,1136.00
2023-04-29T06:30:39.462Z,1135.00
2023-04-29T06:31:39.422Z,1137.00
2023-04-29T06:32:39.407Z,1140.00
2023-04-29T06:33:39.233Z,1140.00
2023-04-29T06:34:39.155Z,1138.00
2023-04-29T06:35:39.069Z,1137.00
2023-04-29T06:36:38.990Z,1136.00
2023-04-29T06:37:38.897Z,1133.00
2023-04-29T06:38:38.797Z,1132.00
2023-04-29T06:39:38.715Z,1134.00
2023-04-29T06:40:38.624Z,1134.00
2023-04-29T06:41:38.567Z,1132.00
2023-04-29T06:42:38.453Z,1130.00
2023-04-29T06:43:38.371Z,1129.00
2023-04-29T06:44:38.276Z,1128.00
2023-04-29T06:45:38.196Z,1127.00
2023-04-29T06:46:38.119Z,1127.00
2023-04-29T06:47:38.090Z,1128.00
2023-04-29T06:48:37.949Z,1127.00
2023-04-29T06:49:37.864Z,1124.00
2023-04-29T06:50:37.824Z,1124.00
2023-04-29T06:51:37.744Z,1126.00
2023-04-29T06:52:37.685Z,1125.00
2023-04-29T06:53:37.597Z,1123.00
2023-04-29T06:54:37.542Z,1125.00
2023-04-29T06:55:37.487Z,1122.00
2023-04-29T06:56:37.447Z,1118.00
2023-04-29T06:57:37.425Z,1119.00
2023-04-29T06:58:37.393Z,1119.00
2023-04-29T06:59:37.350Z,1116.00
2023-04-29T07:00:37.339Z,1117.00
2023-04-29T07:01:37.418Z,1116.00
2023-04-29T07:02:37.291Z,1119.00
2023-04-29T07:03:37.393Z,1117.00
2023-04-29T07:04:37.199Z,1115.00
2023-04-29T07:05:37.104Z,1112.00
2023-04-29T07:06:37.060Z,1115.00
2023-04-29T07:07:37.023Z,1114.00
2023-04-29T07:08:36.981Z,1113.00
2023-04-29T07:09:36.906Z,1114.00
2023-04-29T07:10:36.848Z,1111.00
2023-04-29T07:11:36.797Z,1112.00
2023-04-29T07:12:36.727Z,1112.00
2023-04-29T07:13:36.651Z,1111.00
2023-04-29T07:14:36.589Z,1115.00
2023-04-29T07:15:36.523Z,1115.00
2023-04-29T07:16:36.495Z,1115.00
2023-04-29T07:17:36.399Z,1113.00
2023-04-29T07:18:36.284Z,1113.00
2023-04-29T07:19:36.207Z,1111.00
2023-04-29T07:20:36.119Z,1111.00
2023-04-29T07:21:36.060Z,1112.00
2023-04-29T07:22:35.983Z,1109.00
2023-04-29T07:23:35.904Z,1110.00
2023-04-29T07:24:35.818Z,1110.00
2023-04-29T07:25:35.774Z,1109.00
2023-04-29T07:26:35.698Z,1110.00
2023-04-29T07:27:35.570Z,1108.00
2023-04-29T07:28:35.483Z,1106.00
2023-04-29T07:29:35.397Z,1105.00
2023-04-29T07:30:35.342Z,1108.00
2023-04-29T07:31:38.059Z,1106.00
2023-04-29T07:32:35.184Z,1108.00
2023-04-29T07:33:35.008Z,1106.00
2023-04-29T07:34:34.921Z,1107.00
2023-04-29T07:35:34.804Z,1108.00
2023-04-29T07:36:34.701Z,1105.00
2023-04-29T07:37:35.003Z,1103.00
2023-04-29T07:38:34.499Z,1104.00
2023-04-29T07:39:34.397Z,1105.00
2023-04-29T07:40:34.270Z,1104.00
2023-04-29T07:41:34.169Z,1104.00
2023-04-29T07:42:34.057Z,1104.00
2023-04-29T07:43:33.954Z,1104.00
2023-04-29T07:44:33.854Z,1105.00
2023-04-29T07:45:33.744Z,1107.00
2023-04-29T07:46:33.684Z,1108.00
2023-04-29T07:47:33.584Z,1110.00
2023-04-29T07:48:33.405Z,1111.00
2023-04-29T07:49:33.305Z,1108.00
2023-04-29T07:50:33.183Z,1106.00
2023-04-29T07:51:33.089Z,1107.00
2023-04-29T07:52:32.976Z,1107.00
2023-04-29T07:53:32.865Z,1108.00
2023-04-29T07:54:32.755Z,1106.00
2023-04-29T07:55:32.652Z,1107.00
2023-04-29T07:56:32.539Z,1105.00
2023-04-29T07:57:32.439Z,1108.00
2023-04-29T07:58:32.311Z,1108.00
2023-04-29T07:59:32.214Z,1106.00
2023-04-29T08:00:32.112Z,1104.00
2023-04-29T08:01:31.995Z,1101.00
2023-04-29T08:02:32.022Z,1101.00
2023-04-29T08:03:31.876Z,1100.00
2023-04-29T08:04:32.023Z,1102.00
2023-04-29T08:05:32.036Z,1100.00
2023-04-29T08:06:31.425Z,1101.00
2023-04-29T08:07:31.307Z,1100.00
2023-04-29T08:08:31.197Z,1099.00
2023-04-29T08:09:31.087Z,1096.00
2023-04-29T08:10:30.962Z,1097.00
2023-04-29T08:11:30.854Z,1098.00
2023-04-29T08:12:30.748Z,1097.00
2023-04-29T08:13:30.631Z,1098.00
2023-04-29T08:14:30.499Z,1098.00
2023-04-29T08:15:30.379Z,1093.00
2023-04-29T08:16:30.298Z,1092.00
2023-04-29T08:17:30.206Z,1091.00
2023-04-29T08:18:30.081Z,1093.00
2023-04-29T08:19:30.022Z,1093.00
2023-04-29T08:20:29.938Z,1096.00
2023-04-29T08:21:29.878Z,1096.00
2023-04-29T08:22:29.807Z,1098.00
2023-04-29T08:23:29.727Z,1095.00
2023-04-29T08:24:29.685Z,1094.00
2023-04-29T08:25:29.555Z,1096.00
2023-04-29T08:26:29.487Z,1098.00
2023-04-29T08:27:29.443Z,1101.00
2023-04-29T08:28:29.603Z,1102.00
2023-04-29T08:29:29.303Z,1102.00
2023-04-29T08:30:29.170Z,1099.00
2023-04-29T08:31:29.109Z,1096.00
2023-04-29T08:32:29.032Z,1098.00
2023-04-29T08:33:28.932Z,1102.00
2023-04-29T08:34:28.867Z,1102.00
2023-04-29T08:35:28.759Z,1103.00
2023-04-29T08:36:28.722Z,1103.00
2023-04-29T08:37:28.566Z,1104.00
2023-04-29T08:38:28.492Z,1099.00
2023-04-29T08:39:28.377Z,1095.00
2023-04-29T08:40:28.283Z,1092.00
2023-04-29T08:41:28.198Z,1092.00
2023-04-29T08:42:28.084Z,1095.00
2023-04-29T08:43:28.005Z,1091.00
2023-04-29T08:44:27.905Z,1089.00
2023-04-29T08:45:27.829Z,1088.00
2023-04-29T08:46:27.704Z,1087.00
2023-04-29T08:47:27.659Z,1089.00
2023-04-29T08:48:27.568Z,1089.00
2023-04-29T08:49:27.396Z,1092.00
2023-04-29T08:50:27.311Z,1092.00
2023-04-29T08:51:27.199Z,1094.00
2023-04-29T08:52:27.180Z,1093.00
2023-04-29T08:53:27.008Z,1089.00
2023-04-29T08:54:26.881Z,1088.00
2023-04-29T08:55:26.798Z,1088.00
2023-04-29T08:56:28.044Z,1089.00
2023-04-29T08:57:26.603Z,1090.00
2023-04-29T08:58:26.508Z,1086.00
2023-04-29T08:59:26.397Z,1087.00
2023-04-29T09:00:26.330Z,1090.00
2023-04-29T09:01:26.277Z,1093.00
2023-04-29T09:02:26.218Z,1092.00
2023-04-29T09:03:26.115Z,1092.00
2023-04-29T09:04:25.974Z,1094.00
2023-04-29T09:05:25.822Z,1095.00
2023-04-29T09:06:25.729Z,1094.00
2023-04-29T09:07:25.629Z,1095.00
2023-04-29T09:08:25.539Z,1094.00
2023-04-29T09:09:25.432Z,1094.00
2023-04-29T09:10:25.334Z,1097.00
2023-04-29T09:11:25.224Z,1094.00
2023-04-29T09:12:25.124Z,1092.00
2023-04-29T09:13:25.029Z,1095.00
2023-04-29T09:14:24.925Z,1095.00
2023-04-29T09:15:24.823Z,1092.00
2023-04-29T09:16:24.759Z,1093.00
2023-04-29T09:17:24.658Z,1094.00
2023-04-29T09:18:24.524Z,1092.00
2023-04-29T09:19:24.421Z,1091.00
2023-04-29T09:20:24.323Z,1088.00
2023-04-29T09:21:24.230Z,1087.00
2023-04-29T09:22:24.116Z,1088.00
2023-04-29T09:23:24.022Z,1087.00
2023-04-29T09:24:23.917Z,1085.00
2023-04-29T09:25:23.820Z,1086.00
2023-04-29T09:26:23.720Z,1083.00
2023-04-29T09:27:23.628Z,1083.00
2023-04-29T09:28:23.573Z,1081.00
2023-04-29T09:29:23.454Z,1083.00
2023-04-29T09:30:23.387Z,1084.00
2023-04-29T09:31:23.271Z,1082.00
2023-04-29T09:32:23.218Z,1084.00
2023-04-29T09:33:23.074Z,1085.00
2023-04-29T09:34:23.028Z,1085.00
2023-04-29T09:35:22.891Z,1081.00
2023-04-29T09:36:22.799Z,1079.00
2023-04-29T09:37:22.700Z,1080.00
2023-04-29T09:38:22.617Z,1081.00
2023-04-29T09:39:22.621Z,1085.00
2023-04-29T09:40:22.458Z,1085.00
2023-04-29T09:41:22.371Z,1086.00
2023-04-29T09:42:22.283Z,1086.00
2023-04-29T09:43:22.201Z,1082.00
2023-04-29T09:44:22.123Z,1081.00
2023-04-29T09:45:22.021Z,1083.00
2023-04-29T09:46:21.957Z,1083.00
2023-04-29T09:47:21.872Z,1082.00
2023-04-29T09:48:21.757Z,1084.00
2023-04-29T09:49:21.668Z,1082.00
2023-04-29T09:50:21.595Z,1079.00
2023-04-29T09:51:21.507Z,1078.00
2023-04-29T09:52:21.416Z,1075.00
2023-04-29T09:53:21.334Z,1077.00
2023-04-29T09:54:21.250Z,1080.00
2023-04-29T09:55:21.174Z,1081.00
2023-04-29T09:56:21.080Z,1079.00
2023-04-29T09:57:21.003Z,1078.00
2023-04-29T09:58:20.931Z,1079.00
2023-04-29T09:59:20.848Z,1076.00
2023-04-29T10:00:20.757Z,1074.00
2023-04-29T10:01:20.727Z,1071.00
2023-04-29T10:02:20.699Z,1068.00
2023-04-29T10:03:20.597Z,1067.00
2023-04-29T10:04:20.503Z,1068.00
2023-04-29T10:05:20.357Z,1067.00
2023-04-29T10:06:20.284Z,1067.00
2023-04-29T10:07:20.216Z,1068.00
2023-04-29T10:08:20.110Z,1071.00
2023-04-29T10:09:20.050Z,1071.00
2023-04-29T10:10:19.952Z,1069.00
2023-04-29T10:11:19.867Z,1066.00
2023-04-29T10:12:19.784Z,1064.00
2023-04-29T10:13:19.706Z,1064.00
2023-04-29T10:14:19.627Z,1062.00
2023-04-29T10:15:19.543Z,1062.00
2023-04-29T10:16:19.519Z,1059.00
2023-04-29T10:17:19.401Z,1059.00
2023-04-29T10:18:19.336Z,1059.00
2023-04-29T10:19:19.254Z,1060.00
2023-04-29T10:20:19.185Z,1063.00
2023-04-29T10:21:19.105Z,1065.00
2023-04-29T10:22:19.013Z,1066.00
2023-04-29T10:23:18.953Z,1065.00
2023-04-29T10:24:18.888Z,1065.00
2023-04-29T10:25:18.813Z,1065.00
2023-04-29T10:26:18.740Z,1063.00
2023-04-29T10:27:18.669Z,1063.00
2023-04-29T10:28:18.604Z,1067.00
2023-04-29T10:29:18.544Z,1066.00
2023-04-29T10:30:18.521Z,1069.00
2023-04-29T10:31:18.489Z,1065.00
2023-04-29T10:32:18.361Z,1067.00
2023-04-29T10:33:18.352Z,1069.00
2023-04-29T10:34:18.257Z,1066.00
2023-04-29T10:35:18.199Z,1068.00
2023-04-29T10:36:18.150Z,1064.00
2023-04-29T10:37:18.084Z,1065.00
2023-04-29T10:38:19.087Z,1067.00
2023-04-29T10:39:17.971Z,1067.00
2023-04-29T10:40:17.915Z,1067.00
2023-04-29T10:41:17.862Z,1065.00
2023-04-29T10:42:17.777Z,1067.00
2023-04-29T10:43:17.719Z,1068.00
2023-04-29T10:44:17.647Z,1070.00
2023-04-29T10:45:17.587Z,1074.00
2023-04-29T10:46:17.606Z,1071.00
2023-04-29T10:47:17.445Z,1068.00
2023-04-29T10:48:17.392Z,1066.00
2023-04-29T10:49:17.317Z,1065.00
2023-04-29T10:50:17.253Z,1064.00
2023-04-29T10:51:17.198Z,1063.00
2023-04-29T10:52:17.123Z,1061.00
2023-04-29T10:53:17.084Z,1061.00
2023-04-29T10:54:17.001Z,1058.00
2023-04-29T10:55:16.941Z,1060.00
2023-04-29T10:56:16.891Z,1061.00
2023-04-29T10:57:16.825Z,1060.00
2023-04-29T10:58:16.765Z,1060.00
2023-04-29T10:59:16.707Z,1061.00
2023-04-29T11:00:16.661Z,1056.00
2023-04-29T11:01:16.649Z,1053.00
2023-04-29T11:02:16.538Z,1054.00
2023-04-29T11:03:16.612Z,1055.00
2023-04-29T11:04:16.459Z,1057.00
2023-04-29T11:05:16.372Z,1058.00
2023-04-29T11:06:16.617Z,1056.00
2023-04-29T11:07:16.266Z,1055.00
2023-04-29T11:08:16.244Z,1049.00
2023-04-29T11:09:16.157Z,1048.00
2023-04-29T11:10:16.129Z,1048.00
2023-04-29T11:11:16.053Z,1046.00
2023-04-29T11:12:15.992Z,1049.00
2023-04-29T11:13:15.942Z,1048.00
2023-04-29T11:14:15.892Z,1047.00
2023-04-29T11:15:15.852Z,1046.00
2023-04-29T11:16:15.813Z,1046.00
2023-04-29T11:17:15.739Z,1045.00
2023-04-29T11:18:15.759Z,1044.00
2023-04-29T11:19:15.658Z,1044.00
2023-04-29T11:20:15.589Z,1043.00
2023-04-29T11:21:15.562Z,1043.00
2023-04-29T11:22:15.514Z,1043.00
2023-04-29T11:23:15.460Z,1043.00
2023-04-29T11:24:15.408Z,1043.00
2023-04-29T11:25:15.352Z,1044.00
2023-04-29T11:26:15.330Z,1044.00
2023-04-29T11:27:15.289Z,1041.00
2023-04-29T11:28:15.222Z,1038.00
2023-04-29T11:29:15.159Z,1039.00
2023-04-29T11:30:15.129Z,1037.00
2023-04-29T11:31:15.119Z,1034.00
2023-04-29T11:32:15.122Z,1035.00
2023-04-29T11:33:15.014Z,1032.00
2023-04-29T11:34:14.930Z,1033.00
2023-04-29T11:35:14.901Z,1032.00
2023-04-29T11:36:14.841Z,1031.00
2023-04-29T11:37:14.803Z,1031.00
2023-04-29T11:38:14.754Z,1030.00
2023-04-29T11:39:14.709Z,1030.00
2023-04-29T11:40:14.648Z,1030.00
2023-04-29T11:41:14.615Z,1029.00
2023-04-29T11:42:14.567Z,1030.00
2023-04-29T11:43:14.526Z,1031.00
2023-04-29T11:44:14.483Z,1033.00
2023-04-29T11:45:14.436Z,1034.00
2023-04-29T11:46:14.430Z,1034.00
2023-04-29T11:47:14.311Z,1031.00
2023-04-29T11:48:14.260Z,1026.00
2023-04-29T11:49:14.222Z,1029.00
2023-04-29T11:50:14.180Z,1029.00
2023-04-29T11:51:14.086Z,1029.00
2023-04-29T11:52:14.044Z,1030.00
2023-04-29T11:53:13.995Z,1033.00
2023-04-29T11:54:13.934Z,1034.00
2023-04-29T11:55:13.874Z,1032.00
2023-04-29T11:56:13.840Z,1029.00
2023-04-29T11:57:13.761Z,1032.00
2023-04-29T11:58:13.693Z,1031.00
2023-04-29T11:59:13.600Z,1032.00
2023-04-29T12:00:13.713Z,1031.00
2023-04-29T12:01:13.433Z,1030.00
2023-04-29T12:02:13.396Z,1030.00
2023-04-29T12:03:13.565Z,1028.00
2023-04-29T12:04:13.654Z,1026.00
2023-04-29T12:05:13.685Z,1025.00